Time;durP1;ratioP1;P1;durP2;ratioP2;P2;SDS_P1;SDS_P2;PMS_P1;PMS_P2;Temp;Humidity;BMP_temperature;BMP_pressure;BME280_temperature;BME280_humidity;BME280_pressure;Samples;Min_cycle;Max_cycle;Signal;HPM_P1;HPM_P2
2023/05/23 00:00:53;;;;;;;0.00;0.00;;;15.20;99.90;;;;;;5066142;28;20185;-90
2023/05/23 00:03:21;;;;;;;0.00;0.00;;;15.00;99.90;;;;;;5072078;28;20813;-89
2023/05/23 00:05:47;;;;;;;0.00;0.00;;;15.00;99.90;;;;;;5070896;28;20670;-90
2023/05/23 00:08:13;;;;;;;0.00;0.00;;;14.90;99.90;;;;;;5081237;28;20441;-90
2023/05/23 00:10:38;;;;;;;0.00;0.00;;;15.20;99.90;;;;;;5064037;28;20754;-90
2023/05/23 00:13:04;;;;;;;0.00;0.00;;;15.10;99.90;;;;;;5075196;28;20181;-90
2023/05/23 00:15:30;;;;;;;0.00;0.00;;;15.00;99.90;;;;;;5072078;28;20240;-90
2023/05/23 00:17:55;;;;;;;0.00;0.00;;;15.10;99.90;;;;;;5047364;28;20443;-90
2023/05/23 00:20:21;;;;;;;0.00;0.00;;;15.00;99.90;;;;;;5069770;28;20276;-89
2023/05/23 00:22:48;;;;;;;0.00;0.00;;;15.20;99.90;;;;;;5070738;28;20228;-90
2023/05/23 00:25:13;;;;;;;0.00;0.00;;;15.00;99.90;;;;;;5053727;28;20473;-90
2023/05/23 00:27:38;;;;;;;0.00;0.00;;;15.10;99.90;;;;;;5050892;28;20541;-90
2023/05/23 00:30:05;;;;;;;0.00;0.00;;;14.90;99.90;;;;;;5078288;28;20185;-90
2023/05/23 00:32:30;;;;;;;0.00;0.00;;;15.00;99.90;;;;;;5056476;28;20719;-89
2023/05/23 00:34:56;;;;;;;0.00;0.00;;;14.90;99.90;;;;;;5066082;28;20439;-90
2023/05/23 00:37:21;;;;;;;0.00;0.00;;;15.10;99.90;;;;;;5073681;28;20185;-90
2023/05/23 00:39:47;;;;;;;0.00;0.00;;;15.10;99.90;;;;;;5074944;28;20194;-90
2023/05/23 00:42:13;;;;;;;0.00;0.00;;;15.10;99.90;;;;;;5076280;28;20182;-90
2023/05/23 00:44:38;;;;;;;0.00;0.00;;;15.00;99.90;;;;;;5058470;28;21221;-91
2023/05/23 00:47:06;;;;;;;0.00;0.00;;;15.00;99.90;;;;;;5059871;28;20196;-91
2023/05/23 00:49:32;;;;;;;0.00;0.00;;;15.00;99.90;;;;;;5067883;28;21616;-91
2023/05/23 00:51:59;;;;;;;0.00;0.00;;;15.10;99.90;;;;;;5075405;28;20498;-91
2023/05/23 00:54:29;;;;;;;0.00;0.00;;;15.10;99.90;;;;;;5074004;28;20424;-90
2023/05/23 00:56:55;;;;;;;0.00;0.00;;;15.10;99.90;;;;;;5052951;28;20479;-92
2023/05/23 00:59:23;;;;;;;0.00;0.00;;;15.20;99.90;;;;;;5072873;28;20448;-92
2023/05/23 01:01:51;;;;;;;0.00;0.00;;;15.00;99.90;;;;;;5073554;28;20475;-90
2023/05/23 01:04:18;;;;;;;0.00;0.00;;;15.00;99.90;;;;;;5083832;28;20493;-90
2023/05/23 01:06:45;;;;;;;0.00;0.00;;;15.10;99.90;;;;;;5073967;28;21076;-90
2023/05/23 01:09:17;;;;;;;0.00;0.00;;;15.00;99.90;;;;;;5068148;28;20548;-91
2023/05/23 01:11:56;;;;;;;0.00;0.00;;;14.80;99.90;;;;;;5067940;28;20448;-91
2023/05/23 01:14:34;;;;;;;0.00;0.00;;;14.90;99.90;;;;;;5076278;28;20440;-91
2023/05/23 01:17:29;;;;;;;0.00;0.00;;;14.80;99.90;;;;;;5089418;28;20482;-90
2023/05/23 01:20:00;;;;;;;0.00;0.00;;;14.80;99.90;;;;;;5027574;28;20452;-90
2023/05/23 01:23:02;;;;;;;0.00;0.00;;;14.80;99.90;;;;;;5071836;28;20450;-90
2023/05/23 01:25:45;;;;;;;0.00;0.00;;;14.90;99.90;;;;;;5054371;28;20459;-91
2023/05/23 01:28:15;;;;;;;0.00;0.00;;;14.80;99.90;;;;;;5061196;28;20821;-91
2023/05/23 01:30:44;;;;;;;0.00;0.00;;;14.80;99.90;;;;;;5068460;28;20433;-91
2023/05/23 01:33:12;;;;;;;0.00;0.00;;;14.80;99.90;;;;;;5073160;28;20446;-90
2023/05/23 01:35:39;;;;;;;0.00;0.00;;;14.90;99.90;;;;;;5075936;28;20982;-89
2023/05/23 01:38:04;;;;;;;0.00;0.00;;;14.90;99.90;;;;;;5068487;28;20989;-90
2023/05/23 01:40:30;;;;;;;0.00;0.00;;;14.70;99.90;;;;;;5075518;28;20432;-90
2023/05/23 01:42:56;;;;;;;0.00;0.00;;;14.60;99.90;;;;;;5079129;28;20182;-91
2023/05/23 01:45:25;;;;;;;0.00;0.00;;;14.70;99.90;;;;;;5054274;28;20224;-91
2023/05/23 01:47:51;;;;;;;0.00;0.00;;;14.60;99.90;;;;;;5074721;28;20432;-91
2023/05/23 01:50:17;;;;;;;0.00;0.00;;;14.60;99.90;;;;;;5074964;28;20471;-90
2023/05/23 01:52:42;;;;;;;0.00;0.00;;;14.80;99.90;;;;;;5073097;28;20972;-90
2023/05/23 01:55:08;;;;;;;0.00;0.00;;;14.80;99.90;;;;;;5055067;28;20658;-91
2023/05/23 01:57:36;;;;;;;0.00;0.00;;;14.80;99.90;;;;;;5077203;28;20201;-89
2023/05/23 02:00:05;;;;;;;0.00;0.00;;;14.50;99.90;;;;;;5059043;28;20478;-91
2023/05/23 02:02:31;;;;;;;0.07;0.07;;;14.40;99.90;;;;;;5077370;28;20477;-91
2023/05/23 02:04:57;;;;;;;0.00;0.00;;;14.30;99.90;;;;;;5074455;28;20440;-91
2023/05/23 02:07:22;;;;;;;0.00;0.00;;;14.50;99.90;;;;;;5088779;28;20457;-91
2023/05/23 02:09:48;;;;;;;0.00;0.00;;;14.40;99.90;;;;;;5079047;28;20198;-91
2023/05/23 02:12:14;;;;;;;0.03;0.03;;;14.50;99.90;;;;;;5079490;28;20217;-91
2023/05/23 02:14:41;;;;;;;0.00;0.00;;;14.40;99.90;;;;;;5063585;28;20435;-91
2023/05/23 02:17:08;;;;;;;0.00;0.00;;;14.40;99.90;;;;;;5069719;28;20185;-92
2023/05/23 02:19:34;;;;;;;0.00;0.00;;;14.40;99.90;;;;;;5080705;28;20538;-92
2023/05/23 02:22:00;;;;;;;0.00;0.00;;;14.20;99.90;;;;;;5068681;28;20460;-92
2023/05/23 02:24:25;;;;;;;0.00;0.00;;;14.20;99.90;;;;;;5081624;28;20444;-91
2023/05/23 02:26:51;;;;;;;0.00;0.00;;;14.20;99.90;;;;;;5085240;28;20221;-91
2023/05/23 02:29:17;;;;;;;0.00;0.00;;;14.10;99.90;;;;;;5078735;28;20186;-92
2023/05/23 02:31:43;;;;;;;0.00;0.00;;;14.20;99.90;;;;;;5085216;28;20451;-89
2023/05/23 02:34:08;;;;;;;0.00;0.00;;;14.10;99.90;;;;;;5065544;28;20270;-89
2023/05/23 02:36:35;;;;;;;0.00;0.00;;;14.20;99.90;;;;;;5079422;28;20204;-92
2023/05/23 02:39:01;;;;;;;0.00;0.00;;;14.10;99.90;;;;;;5060223;28;20702;-92
2023/05/23 02:41:27;;;;;;;0.00;0.00;;;14.10;99.90;;;;;;5076756;28;21013;-91
2023/05/23 02:43:53;;;;;;;0.00;0.00;;;14.20;99.90;;;;;;5075807;28;20416;-91
2023/05/23 02:46:18;;;;;;;0.00;0.00;;;14.20;99.90;;;;;;5074815;28;20221;-91
2023/05/23 02:48:44;;;;;;;0.00;0.00;;;14.10;99.90;;;;;;5075815;28;20642;-91
2023/05/23 02:51:09;;;;;;;0.00;0.00;;;14.20;99.90;;;;;;5056839;28;20317;-90
2023/05/23 02:53:35;;;;;;;0.00;0.00;;;14.20;99.90;;;;;;5074313;28;20185;-91
2023/05/23 02:56:00;;;;;;;0.00;0.00;;;14.10;99.90;;;;;;5077411;28;20193;-92
2023/05/23 02:58:26;;;;;;;0.00;0.00;;;14.10;99.90;;;;;;5091138;28;20185;-91
2023/05/23 03:00:51;;;;;;;0.00;0.00;;;14.10;99.90;;;;;;5071798;28;20185;-92
2023/05/23 03:03:17;;;;;;;0.00;0.00;;;14.10;99.90;;;;;;5072826;28;20197;-92
2023/05/23 03:05:42;;;;;;;0.00;0.00;;;14.20;99.90;;;;;;5072339;28;20677;-91
2023/05/23 03:08:08;;;;;;;0.00;0.00;;;14.30;99.90;;;;;;5071957;28;20243;-91
2023/05/23 03:10:33;;;;;;;0.00;0.00;;;14.40;99.90;;;;;;5067006;28;20189;-92
2023/05/23 03:12:59;;;;;;;0.00;0.00;;;14.20;99.90;;;;;;5071997;28;20247;-90
2023/05/23 03:15:25;;;;;;;0.00;0.00;;;14.30;99.90;;;;;;5083072;28;21232;-92
2023/05/23 03:17:50;;;;;;;0.00;0.00;;;14.20;99.90;;;;;;5071920;28;20273;-91
2023/05/23 03:20:16;;;;;;;0.00;0.00;;;14.20;99.90;;;;;;5075242;28;20598;-92
2023/05/23 03:22:44;;;;;;;0.00;0.00;;;14.20;99.90;;;;;;5071390;28;20197;-91
2023/05/23 03:25:10;;;;;;;0.00;0.00;;;14.20;99.90;;;;;;5067015;28;20210;-92
2023/05/23 03:27:35;;;;;;;0.10;0.10;;;14.20;99.90;;;;;;5071388;28;20460;-92
2023/05/23 03:30:02;;;;;;;0.10;0.10;;;14.40;99.90;;;;;;5077357;28;20181;-92
2023/05/23 03:32:28;;;;;;;0.10;0.10;;;14.40;99.90;;;;;;5079395;28;20182;-92
2023/05/23 03:34:53;;;;;;;0.10;0.10;;;14.40;99.90;;;;;;5068894;28;20429;-91
2023/05/23 03:37:19;;;;;;;0.10;0.10;;;14.40;99.90;;;;;;5072876;28;20187;-91
2023/05/23 03:39:45;;;;;;;0.10;0.10;;;14.40;99.90;;;;;;5073762;28;20255;-92
2023/05/23 03:42:10;;;;;;;0.10;0.10;;;14.20;99.90;;;;;;5066261;28;20508;-92
2023/05/23 03:44:36;;;;;;;0.10;0.10;;;14.30;99.90;;;;;;5070783;28;20692;-92
2023/05/23 03:47:01;;;;;;;0.10;0.10;;;14.30;99.90;;;;;;5084595;28;20262;-92
2023/05/23 03:49:27;;;;;;;0.10;0.10;;;14.40;99.90;;;;;;5065042;28;20673;-92
2023/05/23 03:51:52;;;;;;;0.10;0.10;;;14.40;99.90;;;;;;5074066;28;20240;-92
2023/05/23 03:54:18;;;;;;;0.10;0.10;;;14.20;99.90;;;;;;5070582;28;20182;-91
2023/05/23 03:56:44;;;;;;;0.10;0.10;;;14.30;99.90;;;;;;5070261;28;20236;-92
2023/05/23 03:59:10;;;;;;;0.10;0.10;;;14.20;99.90;;;;;;5069021;28;20186;-92
2023/05/23 04:01:35;;;;;;;0.10;0.10;;;14.20;99.90;;;;;;5069381;28;20719;-92
2023/05/23 04:04:01;;;;;;;0.10;0.10;;;14.20;99.90;;;;;;5072451;28;20439;-90
2023/05/23 04:06:30;;;;;;;0.10;0.10;;;14.30;99.90;;;;;;5079481;28;20451;-92
2023/05/23 04:08:56;;;;;;;0.00;0.00;;;14.20;99.90;;;;;;5078903;28;20914;-92
2023/05/23 04:11:21;;;;;;;0.00;0.00;;;14.20;99.90;;;;;;5061094;28;20494;-91
2023/05/23 04:13:47;;;;;;;0.10;0.10;;;14.30;99.90;;;;;;5072703;28;20477;-90
2023/05/23 04:16:12;;;;;;;0.10;0.10;;;13.90;99.90;;;;;;5069838;28;20190;-88
2023/05/23 04:18:38;;;;;;;0.10;0.10;;;13.70;99.90;;;;;;5069542;28;20185;-89
2023/05/23 04:21:04;;;;;;;0.10;0.10;;;13.90;99.90;;;;;;5071748;28;20290;-88
2023/05/23 04:23:30;;;;;;;0.10;0.10;;;14.00;99.90;;;;;;5069705;28;20190;-90
2023/05/23 04:25:56;;;;;;;0.10;0.10;;;14.00;99.90;;;;;;5059686;28;20846;-91
2023/05/23 04:28:22;;;;;;;0.10;0.10;;;13.80;99.90;;;;;;5065199;28;20185;-89
2023/05/23 04:30:48;;;;;;;0.10;0.10;;;13.70;99.90;;;;;;5070817;28;20466;-89
2023/05/23 04:33:14;;;;;;;0.10;0.10;;;13.90;99.90;;;;;;5064729;28;20821;-88
2023/05/23 04:35:39;;;;;;;0.10;0.10;;;13.90;99.90;;;;;;5069374;28;20449;-90
2023/05/23 04:38:05;;;;;;;0.00;0.00;;;13.90;99.90;;;;;;5066060;28;20277;-92
2023/05/23 04:40:31;;;;;;;0.00;0.00;;;13.90;99.90;;;;;;5069706;28;20185;-91
2023/05/23 04:42:56;;;;;;;0.10;0.10;;;13.80;99.90;;;;;;5078697;28;20774;-92
2023/05/23 04:45:22;;;;;;;0.00;0.00;;;13.80;99.90;;;;;;5067158;28;20209;-91
2023/05/23 04:47:47;;;;;;;0.00;0.00;;;13.90;99.90;;;;;;5063248;28;20190;-91
2023/05/23 04:50:17;;;;;;;0.03;0.03;;;13.90;99.90;;;;;;5075268;28;20186;-91
2023/05/23 04:52:42;;;;;;;0.00;0.00;;;13.90;99.90;;;;;;5077908;28;20229;-90
2023/05/23 04:55:08;;;;;;;0.10;0.10;;;14.00;99.90;;;;;;5071332;28;20424;-91
2023/05/23 04:57:34;;;;;;;0.10;0.10;;;13.90;99.90;;;;;;5086063;28;20197;-92
2023/05/23 05:00:00;;;;;;;0.10;0.10;;;13.90;99.90;;;;;;5075467;28;20332;-91
2023/05/23 05:02:26;;;;;;;0.10;0.10;;;13.90;99.90;;;;;;5069417;28;20452;-92
2023/05/23 05:04:52;;;;;;;0.10;0.10;;;13.90;99.90;;;;;;5064700;28;20189;-91
2023/05/23 05:07:17;;;;;;;0.10;0.10;;;14.00;99.90;;;;;;5074450;28;20464;-91
2023/05/23 05:09:43;;;;;;;0.10;0.10;;;14.00;99.90;;;;;;5073690;28;20178;-90
2023/05/23 05:12:08;;;;;;;0.10;0.10;;;14.00;99.90;;;;;;5075708;28;20967;-89
2023/05/23 05:14:34;;;;;;;0.10;0.10;;;14.10;99.90;;;;;;5066585;28;20277;-89
2023/05/23 05:17:01;;;;;;;0.10;0.10;;;14.00;99.90;;;;;;5063556;28;20265;-88
2023/05/23 05:19:27;;;;;;;0.00;0.00;;;14.00;99.90;;;;;;5068778;28;20190;-88
2023/05/23 05:21:52;;;;;;;0.00;0.00;;;14.00;99.90;;;;;;5082947;28;20516;-88
2023/05/23 05:24:19;;;;;;;0.00;0.00;;;14.10;99.90;;;;;;5086309;28;20213;-88
2023/05/23 05:26:45;;;;;;;0.00;0.00;;;14.10;99.90;;;;;;5071699;28;20294;-89
2023/05/23 05:29:12;;;;;;;0.00;0.00;;;14.10;99.90;;;;;;5078890;28;20435;-89
2023/05/23 05:31:37;;;;;;;0.10;0.10;;;14.10;99.90;;;;;;5068776;28;20452;-88
2023/05/23 05:34:03;;;;;;;0.00;0.00;;;14.00;99.90;;;;;;5067023;28;21016;-88
2023/05/23 05:36:28;;;;;;;0.00;0.00;;;13.90;99.90;;;;;;5070804;28;20955;-88
2023/05/23 05:38:54;;;;;;;0.00;0.00;;;14.00;99.90;;;;;;5074380;28;20189;-89
2023/05/23 05:41:21;;;;;;;0.10;0.10;;;14.00;99.90;;;;;;5079468;28;20239;-85
2023/05/23 05:43:46;;;;;;;0.00;0.00;;;14.00;99.90;;;;;;5056028;28;20182;-89
2023/05/23 05:46:12;;;;;;;0.00;0.00;;;14.00;99.90;;;;;;5070214;28;20484;-90
2023/05/23 05:48:37;;;;;;;0.10;0.10;;;14.00;99.90;;;;;;5081780;28;20699;-90
2023/05/23 05:51:03;;;;;;;0.00;0.00;;;14.10;99.90;;;;;;5074492;28;20222;-87
2023/05/23 05:53:29;;;;;;;0.10;0.10;;;14.00;99.90;;;;;;5080555;28;20764;-89
2023/05/23 05:55:54;;;;;;;0.10;0.10;;;14.00;99.90;;;;;;5072595;28;20198;-89
2023/05/23 05:58:20;;;;;;;0.10;0.10;;;14.00;99.90;;;;;;5071068;28;20293;-88
2023/05/23 06:00:47;;;;;;;0.00;0.00;;;14.00;99.90;;;;;;5084376;28;20185;-90
2023/05/23 06:03:14;;;;;;;0.00;0.00;;;13.80;99.90;;;;;;5063652;28;20424;-87
2023/05/23 06:05:40;;;;;;;0.00;0.00;;;13.90;99.90;;;;;;5079299;28;21239;-88
2023/05/23 06:08:06;;;;;;;0.10;0.10;;;13.80;99.90;;;;;;5070380;28;20469;-88
2023/05/23 06:10:31;;;;;;;0.10;0.10;;;13.90;99.90;;;;;;5048839;28;20177;-88
2023/05/23 06:12:58;;;;;;;0.10;0.10;;;14.00;99.90;;;;;;5065363;28;20197;-88
2023/05/23 06:15:23;;;;;;;0.10;0.10;;;13.80;99.90;;;;;;5069156;28;21402;-88
2023/05/23 06:17:50;;;;;;;0.10;0.10;;;13.80;99.90;;;;;;5070308;28;21024;-89
2023/05/23 06:20:15;;;;;;;0.10;0.10;;;13.80;99.90;;;;;;5077297;28;20216;-87
2023/05/23 06:22:41;;;;;;;0.10;0.10;;;13.90;99.90;;;;;;5064507;28;20480;-88
2023/05/23 06:25:07;;;;;;;0.10;0.10;;;13.90;99.90;;;;;;5072752;28;20545;-88
2023/05/23 06:27:32;;;;;;;0.00;0.00;;;13.90;99.90;;;;;;5063493;28;20189;-88
2023/05/23 06:29:58;;;;;;;0.00;0.00;;;13.80;99.90;;;;;;5068707;28;20181;-88
2023/05/23 06:32:23;;;;;;;0.00;0.00;;;13.80;99.90;;;;;;5055571;28;20536;-87
2023/05/23 06:34:49;;;;;;;0.00;0.00;;;13.70;99.90;;;;;;5071496;28;20205;-88
2023/05/23 06:37:15;;;;;;;0.00;0.00;;;13.90;99.90;;;;;;5066389;28;20665;-88
2023/05/23 06:39:40;;;;;;;0.10;0.10;;;13.80;99.90;;;;;;5066666;28;20224;-87
2023/05/23 06:42:06;;;;;;;0.10;0.10;;;13.80;99.90;;;;;;5047144;28;20531;-88
2023/05/23 06:44:32;;;;;;;0.10;0.10;;;13.80;99.90;;;;;;5061174;28;20278;-86
2023/05/23 06:46:57;;;;;;;0.10;0.10;;;13.90;99.90;;;;;;5070378;28;20274;-85
2023/05/23 06:49:24;;;;;;;0.10;0.10;;;13.90;99.90;;;;;;5073261;28;20204;-88
2023/05/23 06:51:50;;;;;;;0.10;0.10;;;14.00;99.90;;;;;;5087130;28;20308;-88
2023/05/23 06:54:15;;;;;;;0.10;0.10;;;13.80;99.90;;;;;;5069581;28;20424;-89
2023/05/23 06:56:41;;;;;;;0.10;0.10;;;13.90;99.90;;;;;;5069934;28;20872;-88
2023/05/23 06:59:06;;;;;;;0.10;0.10;;;13.90;99.90;;;;;;5070463;28;20191;-88
2023/05/23 07:01:32;;;;;;;0.10;0.10;;;14.00;99.90;;;;;;5064040;28;20842;-89
2023/05/23 07:03:57;;;;;;;0.10;0.10;;;14.00;99.90;;;;;;5069309;28;20734;-88
2023/05/23 07:06:23;;;;;;;0.10;0.10;;;13.90;99.90;;;;;;5073956;28;20227;-90
2023/05/23 07:08:48;;;;;;;0.10;0.10;;;14.00;99.90;;;;;;5052984;28;20188;-85
2023/05/23 07:11:14;;;;;;;0.10;0.10;;;13.90;99.90;;;;;;5071657;28;20194;-89
2023/05/23 07:13:40;;;;;;;0.10;0.10;;;14.10;99.90;;;;;;5081141;28;20181;-89
2023/05/23 07:16:05;;;;;;;0.10;0.10;;;13.90;99.90;;;;;;5072757;28;20273;-89
2023/05/23 07:18:31;;;;;;;0.10;0.10;;;14.00;99.90;;;;;;5071327;28;20179;-91
2023/05/23 07:20:56;;;;;;;0.10;0.10;;;13.90;99.90;;;;;;5065059;28;20660;-91
2023/05/23 07:23:25;;;;;;;0.10;0.10;;;13.80;99.90;;;;;;5065507;28;20251;-92
2023/05/23 07:25:52;;;;;;;0.10;0.10;;;13.80;99.90;;;;;;5075595;28;20760;-89
2023/05/23 07:28:19;;;;;;;0.10;0.10;;;14.00;99.90;;;;;;5051284;28;20447;-90
2023/05/23 07:30:45;;;;;;;0.10;0.10;;;13.90;99.90;;;;;;5050937;28;20467;-89
2023/05/23 07:33:11;;;;;;;0.10;0.10;;;13.80;99.90;;;;;;5065879;28;20436;-87
2023/05/23 07:35:36;;;;;;;0.10;0.10;;;13.80;99.90;;;;;;5061459;28;20577;-89
2023/05/23 07:38:03;;;;;;;0.10;0.10;;;13.80;99.90;;;;;;5067693;28;20239;-88
2023/05/23 07:40:28;;;;;;;0.10;0.10;;;13.70;99.90;;;;;;5062379;28;20174;-87
2023/05/23 07:42:54;;;;;;;0.10;0.10;;;13.80;99.90;;;;;;5065972;28;20447;-87
2023/05/23 07:45:20;;;;;;;0.10;0.10;;;13.70;99.90;;;;;;5068146;28;20209;-86
2023/05/23 07:47:46;;;;;;;0.10;0.10;;;13.60;99.90;;;;;;5068333;28;20544;-82
2023/05/23 07:50:11;;;;;;;0.10;0.10;;;13.60;99.90;;;;;;5067306;28;20446;-82
2023/05/23 07:52:37;;;;;;;0.10;0.10;;;13.60;99.90;;;;;;5061586;28;20237;-82
2023/05/23 07:55:03;;;;;;;0.10;0.10;;;13.60;99.90;;;;;;5070095;28;20231;-82
2023/05/23 07:57:29;;;;;;;0.10;0.10;;;13.50;99.90;;;;;;5069589;28;21276;-81
2023/05/23 07:59:55;;;;;;;0.00;0.00;;;13.60;99.90;;;;;;5069118;28;20189;-81
2023/05/23 08:02:20;;;;;;;0.03;0.03;;;13.60;99.90;;;;;;5068273;28;20189;-81
2023/05/23 08:04:46;;;;;;;0.00;0.00;;;13.60;99.90;;;;;;5069407;28;20182;-81
2023/05/23 08:07:12;;;;;;;0.00;0.00;;;13.50;99.90;;;;;;5067199;28;20218;-81
2023/05/23 08:09:39;;;;;;;0.00;0.00;;;13.50;99.90;;;;;;5072010;28;20438;-84
2023/05/23 08:12:05;;;;;;;0.00;0.00;;;13.50;99.90;;;;;;5058228;28;20593;-83
2023/05/23 08:14:31;;;;;;;0.00;0.00;;;13.70;99.90;;;;;;5068806;28;20963;-84
2023/05/23 08:16:57;;;;;;;0.07;0.07;;;13.60;99.90;;;;;;5059434;28;20483;-83
2023/05/23 08:19:22;;;;;;;0.00;0.00;;;13.70;99.90;;;;;;5065866;28;20684;-83
2023/05/23 08:21:48;;;;;;;0.00;0.00;;;13.60;99.90;;;;;;5066189;28;20182;-84
2023/05/23 08:24:13;;;;;;;0.00;0.00;;;13.60;99.90;;;;;;5075200;28;20209;-83
2023/05/23 08:26:39;;;;;;;0.00;0.00;;;13.60;99.90;;;;;;5061314;28;20308;-85
2023/05/23 08:29:05;;;;;;;0.00;0.00;;;13.60;99.90;;;;;;5064396;28;20186;-84
2023/05/23 08:31:31;;;;;;;0.00;0.00;;;13.40;99.90;;;;;;5061198;28;20209;-83
2023/05/23 08:33:57;;;;;;;0.00;0.00;;;13.50;99.90;;;;;;5070490;28;20458;-83
2023/05/23 08:36:23;;;;;;;0.00;0.00;;;13.30;99.90;;;;;;5060089;28;20448;-83
2023/05/23 08:38:49;;;;;;;0.00;0.00;;;13.30;99.90;;;;;;5077549;28;21131;-83
2023/05/23 08:41:23;;;;;;;0.00;0.00;;;13.10;99.90;;;;;;5051991;28;20181;-83
2023/05/23 08:43:49;;;;;;;0.00;0.00;;;13.10;99.90;;;;;;5071496;28;20439;-83
2023/05/23 08:46:15;;;;;;;0.00;0.00;;;13.10;99.90;;;;;;5068126;28;20489;-83
2023/05/23 08:48:41;;;;;;;0.00;0.00;;;13.00;99.90;;;;;;5069445;28;20565;-83
2023/05/23 08:51:11;;;;;;;0.07;0.07;;;12.80;99.90;;;;;;5082889;28;20482;-84
2023/05/23 08:53:39;;;;;;;0.00;0.00;;;12.80;99.90;;;;;;5084055;28;20450;-83
2023/05/23 08:56:06;;;;;;;0.07;0.07;;;12.70;99.90;;;;;;5072143;28;20455;-84
2023/05/23 08:58:33;;;;;;;0.00;0.00;;;12.70;99.90;;;;;;5073734;28;20523;-83
2023/05/23 09:00:59;;;;;;;0.00;0.00;;;12.70;99.90;;;;;;5069888;28;20500;-84
2023/05/23 09:03:28;;;;;;;0.00;0.00;;;12.70;99.90;;;;;;5089154;28;20541;-84
2023/05/23 09:05:54;;;;;;;0.00;0.00;;;12.60;99.90;;;;;;5081807;28;20475;-84
2023/05/23 09:08:20;;;;;;;0.00;0.00;;;12.60;99.90;;;;;;5091196;28;20429;-83
2023/05/23 09:10:48;;;;;;;0.03;0.03;;;12.60;99.90;;;;;;5091939;28;20438;-84
2023/05/23 09:13:16;;;;;;;0.10;0.10;;;12.60;99.90;;;;;;5085881;28;20443;-84
2023/05/23 09:16:00;;;;;;;0.07;0.07;;;12.70;99.90;;;;;;5073495;28;20866;-85
2023/05/23 09:18:27;;;;;;;0.00;0.00;;;12.50;99.90;;;;;;5054610;28;20405;-84
2023/05/23 09:20:52;;;;;;;0.10;0.10;;;12.60;99.90;;;;;;5057485;28;20475;-84
2023/05/23 09:23:19;;;;;;;0.00;0.00;;;12.70;99.90;;;;;;5071885;28;20955;-84
2023/05/23 09:25:48;;;;;;;0.00;0.00;;;12.70;99.90;;;;;;5065139;28;20205;-84
2023/05/23 09:28:13;;;;;;;0.03;0.03;;;12.60;99.90;;;;;;5066753;28;20447;-84
2023/05/23 09:30:39;;;;;;;0.00;0.00;;;12.70;99.90;;;;;;5055687;28;20449;-84
2023/05/23 09:33:05;;;;;;;0.00;0.00;;;12.70;99.90;;;;;;5077502;28;20190;-85
2023/05/23 09:35:30;;;;;;;0.03;0.03;;;12.70;99.90;;;;;;5068730;28;20260;-84
2023/05/23 09:38:00;;;;;;;0.00;0.00;;;12.70;99.90;;;;;;5072263;28;20196;-86
2023/05/23 09:40:33;;;;;;;0.10;0.10;;;12.70;99.90;;;;;;5071971;28;20551;-84
2023/05/23 09:43:03;;;;;;;0.03;0.03;;;12.70;99.90;;;;;;5071146;28;20809;-86
2023/05/23 09:45:31;;;;;;;0.10;0.10;;;12.80;99.90;;;;;;5067401;28;20471;-85
2023/05/23 09:47:57;;;;;;;0.00;0.00;;;12.90;99.90;;;;;;5074110;28;20581;-86
2023/05/23 09:50:24;;;;;;;0.03;0.03;;;12.70;99.90;;;;;;5071242;28;20483;-85
2023/05/23 09:52:52;;;;;;;0.00;0.00;;;12.80;99.90;;;;;;5083323;28;20201;-86
2023/05/23 09:55:18;;;;;;;0.03;0.03;;;13.00;99.90;;;;;;5069053;28;20432;-87
2023/05/23 09:57:44;;;;;;;0.00;0.00;;;13.00;99.90;;;;;;5072300;28;20450;-87
2023/05/23 10:00:12;;;;;;;0.07;0.07;;;12.80;99.90;;;;;;5082526;28;20181;-86
2023/05/23 10:03:00;;;;;;;0.03;0.03;;;12.90;99.90;;;;;;5072081;28;20452;-87
2023/05/23 10:05:35;;;;;;;0.00;0.00;;;13.10;99.90;;;;;;5057697;28;20468;-85
2023/05/23 10:08:03;;;;;;;0.00;0.00;;;12.90;99.90;;;;;;5082592;28;20443;-85
2023/05/23 10:10:31;;;;;;;0.03;0.03;;;12.80;99.90;;;;;;5078249;28;20529;-86
2023/05/23 10:13:01;;;;;;;0.07;0.07;;;12.70;99.90;;;;;;5074233;28;20562;-87
2023/05/23 10:15:33;;;;;;;0.00;0.00;;;12.50;99.90;;;;;;5072408;28;20797;-85
2023/05/23 10:18:08;;;;;;;0.03;0.03;;;12.50;99.90;;;;;;5074367;28;20479;-86
2023/05/23 10:20:36;;;;;;;0.03;0.03;;;12.50;99.90;;;;;;5070273;28;20435;-87
2023/05/23 10:23:04;;;;;;;0.00;0.00;;;12.60;99.90;;;;;;5061613;28;20433;-86
2023/05/23 10:25:30;;;;;;;0.00;0.00;;;12.60;99.90;;;;;;5069110;28;20471;-88
2023/05/23 10:28:00;;;;;;;0.00;0.00;;;12.70;99.90;;;;;;5069407;28;20452;-86
2023/05/23 10:30:26;;;;;;;0.03;0.03;;;13.00;99.90;;;;;;5040888;28;20665;-87
2023/05/23 10:32:54;;;;;;;0.00;0.00;;;13.30;99.90;;;;;;5072161;28;20420;-87
2023/05/23 10:35:29;;;;;;;0.00;0.00;;;13.40;99.90;;;;;;5071543;28;20487;-85
2023/05/23 10:38:05;;;;;;;0.10;0.10;;;13.30;99.90;;;;;;5067726;28;20448;-86
2023/05/23 10:40:43;;;;;;;0.00;0.00;;;13.40;99.90;;;;;;5059387;28;20821;-86
2023/05/23 10:43:39;;;;;;;0.00;0.00;;;12.90;99.90;;;;;;5067648;28;20443;-86
2023/05/23 10:46:08;;;;;;;0.00;0.00;;;13.10;99.90;;;;;;5069772;28;20502;-87
2023/05/23 10:48:39;;;;;;;0.00;0.00;;;13.20;99.90;;;;;;5077728;28;20995;-85
2023/05/23 10:51:19;;;;;;;0.00;0.00;;;13.20;99.90;;;;;;5085988;28;20475;-91
2023/05/23 10:53:45;;;;;;;0.10;0.10;;;13.20;99.90;;;;;;5063741;28;20523;-87
2023/05/23 10:56:22;;;;;;;0.00;0.00;;;13.20;99.90;;;;;;5066016;28;20436;-88
2023/05/23 10:58:55;;;;;;;0.00;0.00;;;13.00;99.90;;;;;;5054034;28;21002;-89
2023/05/23 11:01:22;;;;;;;0.10;0.10;;;12.80;99.90;;;;;;5071987;28;20432;-89
2023/05/23 11:03:50;;;;;;;0.00;0.00;;;13.10;99.90;;;;;;5071923;28;20487;-92
2023/05/23 11:06:40;;;;;;;0.03;0.03;;;13.00;99.90;;;;;;5065784;28;20507;-86
2023/05/23 11:09:17;;;;;;;0.00;0.00;;;13.20;99.90;;;;;;5067370;28;20432;-92
2023/05/23 11:11:52;;;;;;;0.00;0.00;;;13.60;99.90;;;;;;5053598;28;20428;-91
2023/05/23 11:14:19;;;;;;;0.00;0.00;;;13.90;99.90;;;;;;5050482;28;20469;-96
2023/05/23 11:16:47;;;;;;;0.00;0.00;;;14.40;99.90;;;;;;5066959;28;20436;-92
2023/05/23 11:19:18;;;;;;;0.00;0.00;;;14.70;99.90;;;;;;5054247;28;20447;-94
2023/05/23 11:21:58;;;;;;;0.00;0.00;;;14.70;99.90;;;;;;5057914;28;20515;-92
2023/05/23 11:24:51;;;;;;;0.00;0.00;;;15.00;99.90;;;;;;5064747;28;20435;-88
2023/05/23 11:27:24;;;;;;;0.00;0.00;;;14.90;99.90;;;;;;5068613;28;20486;-94
2023/05/23 11:30:16;;;;;;;0.00;0.00;;;15.00;99.90;;;;;;5057987;28;20435;-95
2023/05/23 11:32:50;;;;;;;0.00;0.00;;;15.10;99.90;;;;;;5054415;28;20448;-95
2023/05/23 11:35:16;;;;;;;0.00;0.00;;;15.20;99.90;;;;;;5061668;28;20460;-95
2023/05/23 11:37:43;;;;;;;0.00;0.00;;;15.00;99.90;;;;;;5064730;28;20451;-94
2023/05/23 11:40:32;;;;;;;0.00;0.00;;;14.60;99.90;;;;;;5052760;28;20531;-92
2023/05/23 11:42:59;;;;;;;0.00;0.00;;;14.80;99.90;;;;;;5063405;28;20500;-93
2023/05/23 11:45:26;;;;;;;0.00;0.00;;;14.50;99.90;;;;;;5060203;28;20466;-92
2023/05/23 11:47:52;;;;;;;0.00;0.00;;;14.50;99.90;;;;;;5075340;28;20448;-94
2023/05/23 11:50:19;;;;;;;0.00;0.00;;;14.80;99.90;;;;;;5068761;28;20538;-95
2023/05/23 11:52:50;;;;;;;0.00;0.00;;;15.10;99.90;;;;;;5057563;28;20563;-93
2023/05/23 11:55:16;;;;;;;0.00;0.00;;;15.50;99.90;;;;;;5070021;28;20512;-91
2023/05/23 11:57:43;;;;;;;0.00;0.00;;;15.30;99.90;;;;;;5052904;28;20443;-90
2023/05/23 12:00:10;;;;;;;0.00;0.00;;;15.10;99.90;;;;;;5071056;28;20448;-95
2023/05/23 12:02:43;;;;;;;0.00;0.00;;;14.90;99.90;;;;;;5056080;28;20539;-91
2023/05/23 12:05:17;;;;;;;0.00;0.00;;;15.00;99.90;;;;;;5062985;28;20516;-92
2023/05/23 12:07:46;;;;;;;0.00;0.00;;;15.00;99.90;;;;;;5061040;28;20435;-89
2023/05/23 12:10:15;;;;;;;0.00;0.00;;;14.80;99.90;;;;;;5046486;28;20482;-92
2023/05/23 12:12:41;;;;;;;0.00;0.00;;;14.90;99.90;;;;;;5060752;28;20559;-90
2023/05/23 12:15:08;;;;;;;0.00;0.00;;;14.90;99.90;;;;;;5062769;28;20470;-90
2023/05/23 12:17:35;;;;;;;0.00;0.00;;;14.90;99.90;;;;;;5055875;28;20443;-92
2023/05/23 12:20:01;;;;;;;0.00;0.00;;;14.80;99.90;;;;;;5051181;28;20866;-89
2023/05/23 12:22:27;;;;;;;0.00;0.00;;;14.70;99.90;;;;;;5076897;28;20543;-91
2023/05/23 12:24:56;;;;;;;0.00;0.00;;;14.60;99.90;;;;;;5067039;28;20182;-91
2023/05/23 12:27:34;;;;;;;0.00;0.00;;;14.60;99.90;;;;;;5061038;28;20499;-95
2023/05/23 12:30:06;;;;;;;0.00;0.00;;;14.50;99.90;;;;;;5078418;28;20551;-87
2023/05/23 12:32:32;;;;;;;0.00;0.00;;;14.50;99.90;;;;;;5061624;28;20483;-88
2023/05/23 12:34:58;;;;;;;0.00;0.00;;;14.70;99.90;;;;;;5082260;28;20863;-92
2023/05/23 12:37:24;;;;;;;0.00;0.00;;;14.70;99.90;;;;;;5065210;28;20188;-90
2023/05/23 12:39:50;;;;;;;0.00;0.00;;;14.60;99.90;;;;;;5088761;28;20184;-92
2023/05/23 12:42:15;;;;;;;0.00;0.00;;;14.50;99.90;;;;;;5077899;28;20521;-92
2023/05/23 12:44:42;;;;;;;0.00;0.00;;;14.60;99.90;;;;;;5082956;28;20189;-92
2023/05/23 12:47:09;;;;;;;0.00;0.00;;;15.10;99.90;;;;;;5061181;28;20252;-90
2023/05/23 12:49:34;;;;;;;0.00;0.00;;;15.30;99.90;;;;;;5072759;28;20849;-91